Terminal Aerodrome Forecast
Issued by NWS

Current Version | Previous Version | Graphics & Text | Print | Product List | Glossary On
Versions: 1 2 3 4 5 6 7 8 9 10 11 12 13 14 15 16 17 18 19 20 21 22 23 24 25 26 27 28 29 30 31 32 33 34 35
000
FTUS41 KRNK 030524
TAFLWB
TAF
KLWB 030524Z 0306/0406 00000KT 5SM BR BKN120
     FM030700 00000KT 1/4SM FG BKN001
     FM031330 VRB02KT P6SM SCT025
     FM031800 31004KT P6SM VCTS BKN050CB
     FM040000 00000KT P6SM BKN060=

USA.gov is the U.S. government's official web portal to all federal, state and local government web resources and services.